Falkland, North Carolina
Current Conditions -  °F | °C
As of 4:35 AM on Friday 28 Nov 2014 (Local Time) from KPGV Reporting Station
Clear Clear  
Wind Chill: 32°   Ceiling: Unl
Heat Index: 32°   Visibility: 10mi
Dew Point: 27°   Wind: 3mph
Humidity: 80%   Direction: 330°NNW
Pressure: 30.28"   Gusts: NA
Location:  35.7°N, 77.51°W
Report Text: KPGV 280935Z AUTO 33003KT 10SM CLR 00/M03 A3028 RMK AO2
Loading
Personal Weather Stations






























Interactive Weather Map New forecast layout! Learn more

10-Day Weather Forecast

Advertisements
Track Severe Weather on mobile